Sawyer County Airport Hayward US
ICAO: KHYR
IATA: HYR
Category: Medium
Scheduled Services: No

Elevation: 1216 ft
TransAlt. 18000 ft.

Airport Communications:
MINNEAPOLIS CNTR:126.45
ASOS:113.4
GREEN BAY RDO:113.4
CTAF/UNICOM:122.8

KHYR Zoom In..

Runways:

(A) RW 02 length 5002 ft width 100 ft
LOC 108.50 / hdg 25

(B) RW 16 length 1090 ft width 110 ft
LOC 108.50 / hdg 163

(C) RW 20 length 5002 ft width 100 ft
LOC 108.50 / hdg 205

(D) RW 34 length 1090 ft width 110 ft
LOC 108.50 / hdg 343

Location; KHYR
Day. 05 / Time. 17.53 Zulu
* Altimeter: 30.07
* Temperature: 23° c. 73.4°f.
* Wind from: 210° Speed 07 kn.
Dewpoint: 11° c.
Visibility: 10 Statute Miles.
Clouds: Clear (automated report).

KHYR 051753Z AUTO 21007KT 10SM CLR 23/11 A3007 RMK AO2 SLP185 T02330111 10233 20100 58002

Going to: --> -->


Wind From 210°
Speed 07 kn.

 
 
jpsmedia worldairports.se 2020   terms of use